sensor_id;sensor_type;location;lat;lon;timestamp;P1;durP1;ratioP1;P2;durP2;ratioP2
53072;SDS011;38955;48.916;2.336;2023-05-07T00:00:38;15.30;;;3.03;;
53072;SDS011;38955;48.916;2.336;2023-05-07T00:02:41;16.15;;;3.05;;
53072;SDS011;38955;48.916;2.336;2023-05-07T00:04:45;6.07;;;2.63;;
53072;SDS011;38955;48.916;2.336;2023-05-07T00:06:47;5.93;;;3.25;;
53072;SDS011;38955;48.916;2.336;2023-05-07T00:08:49;5.68;;;2.40;;
53072;SDS011;38955;48.916;2.336;2023-05-07T00:10:51;6.03;;;2.60;;
53072;SDS011;38955;48.916;2.336;2023-05-07T00:12:53;8.45;;;2.60;;
53072;SDS011;38955;48.916;2.336;2023-05-07T00:14:56;8.43;;;3.10;;
53072;SDS011;38955;48.916;2.336;2023-05-07T00:16:58;9.40;;;2.75;;
53072;SDS011;38955;48.916;2.336;2023-05-07T00:19:00;14.27;;;2.85;;
53072;SDS011;38955;48.916;2.336;2023-05-07T00:21:03;18.42;;;3.35;;
53072;SDS011;38955;48.916;2.336;2023-05-07T00:23:06;9.30;;;2.60;;
53072;SDS011;38955;48.916;2.336;2023-05-07T00:25:08;5.07;;;2.30;;
53072;SDS011;38955;48.916;2.336;2023-05-07T00:27:11;5.57;;;2.22;;
53072;SDS011;38955;48.916;2.336;2023-05-07T00:29:13;9.05;;;2.50;;
53072;SDS011;38955;48.916;2.336;2023-05-07T00:31:15;7.55;;;2.45;;
53072;SDS011;38955;48.916;2.336;2023-05-07T00:33:17;9.32;;;2.55;;
53072;SDS011;38955;48.916;2.336;2023-05-07T00:35:19;6.13;;;2.20;;
53072;SDS011;38955;48.916;2.336;2023-05-07T00:37:22;3.70;;;1.98;;
53072;SDS011;38955;48.916;2.336;2023-05-07T00:39:24;5.57;;;1.85;;
53072;SDS011;38955;48.916;2.336;2023-05-07T00:41:27;5.05;;;1.70;;
53072;SDS011;38955;48.916;2.336;2023-05-07T00:43:29;5.85;;;2.15;;
53072;SDS011;38955;48.916;2.336;2023-05-07T00:45:31;6.22;;;1.52;;
53072;SDS011;38955;48.916;2.336;2023-05-07T00:47:34;4.57;;;2.08;;
53072;SDS011;38955;48.916;2.336;2023-05-07T00:49:37;3.33;;;1.77;;
53072;SDS011;38955;48.916;2.336;2023-05-07T00:51:41;4.07;;;2.08;;
53072;SDS011;38955;48.916;2.336;2023-05-07T00:53:44;2.55;;;1.45;;
53072;SDS011;38955;48.916;2.336;2023-05-07T00:55:47;11.00;;;2.20;;
53072;SDS011;38955;48.916;2.336;2023-05-07T00:57:50;4.15;;;1.92;;
53072;SDS011;38955;48.916;2.336;2023-05-07T00:59:52;4.90;;;1.77;;
53072;SDS011;38955;48.916;2.336;2023-05-07T01:01:54;3.17;;;1.77;;
53072;SDS011;38955;48.916;2.336;2023-05-07T01:03:57;4.38;;;1.98;;
53072;SDS011;38955;48.916;2.336;2023-05-07T01:05:59;4.28;;;1.75;;
53072;SDS011;38955;48.916;2.336;2023-05-07T01:08:03;4.18;;;1.83;;
53072;SDS011;38955;48.916;2.336;2023-05-07T01:10:08;3.88;;;1.70;;
53072;SDS011;38955;48.916;2.336;2023-05-07T01:12:12;10.40;;;1.80;;
53072;SDS011;38955;48.916;2.336;2023-05-07T01:14:15;5.88;;;1.50;;
53072;SDS011;38955;48.916;2.336;2023-05-07T01:16:17;3.08;;;1.33;;
53072;SDS011;38955;48.916;2.336;2023-05-07T01:18:20;2.97;;;1.30;;
53072;SDS011;38955;48.916;2.336;2023-05-07T01:20:23;6.15;;;1.60;;
53072;SDS011;38955;48.916;2.336;2023-05-07T01:22:30;4.45;;;1.27;;
53072;SDS011;38955;48.916;2.336;2023-05-07T01:24:33;5.50;;;1.70;;
53072;SDS011;38955;48.916;2.336;2023-05-07T01:26:38;4.45;;;1.88;;
53072;SDS011;38955;48.916;2.336;2023-05-07T01:28:41;15.50;;;1.48;;
53072;SDS011;38955;48.916;2.336;2023-05-07T01:30:43;5.93;;;1.38;;
53072;SDS011;38955;48.916;2.336;2023-05-07T01:32:49;3.25;;;1.20;;
53072;SDS011;38955;48.916;2.336;2023-05-07T01:34:54;3.47;;;1.10;;
53072;SDS011;38955;48.916;2.336;2023-05-07T01:36:58;1.95;;;1.27;;
53072;SDS011;38955;48.916;2.336;2023-05-07T01:39:03;3.00;;;1.00;;
53072;SDS011;38955;48.916;2.336;2023-05-07T01:43:09;10.65;;;1.20;;
53072;SDS011;38955;48.916;2.336;2023-05-07T01:45:11;7.45;;;1.15;;
53072;SDS011;38955;48.916;2.336;2023-05-07T01:47:13;2.05;;;1.30;;
53072;SDS011;38955;48.916;2.336;2023-05-07T01:49:16;3.40;;;1.40;;
53072;SDS011;38955;48.916;2.336;2023-05-07T01:51:19;2.33;;;1.48;;
53072;SDS011;38955;48.916;2.336;2023-05-07T01:53:23;3.83;;;1.38;;
53072;SDS011;38955;48.916;2.336;2023-05-07T01:55:29;1.90;;;1.00;;
53072;SDS011;38955;48.916;2.336;2023-05-07T01:57:32;4.70;;;1.33;;
53072;SDS011;38955;48.916;2.336;2023-05-07T01:59:34;4.38;;;1.20;;
53072;SDS011;38955;48.916;2.336;2023-05-07T02:01:36;3.85;;;1.30;;
53072;SDS011;38955;48.916;2.336;2023-05-07T02:03:38;2.92;;;1.50;;
53072;SDS011;38955;48.916;2.336;2023-05-07T02:05:40;1.70;;;1.00;;
53072;SDS011;38955;48.916;2.336;2023-05-07T02:07:42;3.17;;;1.38;;
53072;SDS011;38955;48.916;2.336;2023-05-07T02:09:44;2.15;;;1.20;;
53072;SDS011;38955;48.916;2.336;2023-05-07T02:11:48;3.15;;;1.42;;
53072;SDS011;38955;48.916;2.336;2023-05-07T02:13:50;1.85;;;1.20;;
53072;SDS011;38955;48.916;2.336;2023-05-07T02:15:52;2.47;;;1.20;;
53072;SDS011;38955;48.916;2.336;2023-05-07T02:17:58;2.13;;;1.38;;
53072;SDS011;38955;48.916;2.336;2023-05-07T02:20:03;6.05;;;1.67;;
53072;SDS011;38955;48.916;2.336;2023-05-07T02:22:06;1.92;;;1.25;;
53072;SDS011;38955;48.916;2.336;2023-05-07T02:24:08;4.43;;;1.52;;
53072;SDS011;38955;48.916;2.336;2023-05-07T02:26:11;4.45;;;1.40;;
53072;SDS011;38955;48.916;2.336;2023-05-07T02:28:14;1.70;;;1.30;;
53072;SDS011;38955;48.916;2.336;2023-05-07T02:30:16;3.17;;;1.38;;
53072;SDS011;38955;48.916;2.336;2023-05-07T02:32:18;2.55;;;1.20;;
53072;SDS011;38955;48.916;2.336;2023-05-07T02:34:21;2.17;;;1.20;;
53072;SDS011;38955;48.916;2.336;2023-05-07T02:36:23;2.17;;;1.40;;
53072;SDS011;38955;48.916;2.336;2023-05-07T02:38:25;2.75;;;1.50;;
53072;SDS011;38955;48.916;2.336;2023-05-07T02:40:27;3.63;;;1.38;;
53072;SDS011;38955;48.916;2.336;2023-05-07T02:42:29;3.08;;;1.42;;
53072;SDS011;38955;48.916;2.336;2023-05-07T02:44:33;4.13;;;1.73;;
53072;SDS011;38955;48.916;2.336;2023-05-07T02:46:36;6.22;;;1.42;;
53072;SDS011;38955;48.916;2.336;2023-05-07T02:48:39;2.08;;;1.30;;
53072;SDS011;38955;48.916;2.336;2023-05-07T02:50:41;2.50;;;1.60;;
53072;SDS011;38955;48.916;2.336;2023-05-07T02:52:43;2.80;;;1.50;;
53072;SDS011;38955;48.916;2.336;2023-05-07T02:54:45;3.40;;;1.55;;
53072;SDS011;38955;48.916;2.336;2023-05-07T02:56:47;2.95;;;1.90;;
53072;SDS011;38955;48.916;2.336;2023-05-07T02:58:49;5.40;;;2.13;;
53072;SDS011;38955;48.916;2.336;2023-05-07T03:00:53;4.20;;;1.65;;
53072;SDS011;38955;48.916;2.336;2023-05-07T03:02:58;4.35;;;2.25;;
53072;SDS011;38955;48.916;2.336;2023-05-07T03:05:00;3.95;;;2.38;;
53072;SDS011;38955;48.916;2.336;2023-05-07T03:07:02;5.03;;;2.08;;
53072;SDS011;38955;48.916;2.336;2023-05-07T03:09:06;2.45;;;1.65;;
53072;SDS011;38955;48.916;2.336;2023-05-07T03:11:08;3.75;;;1.60;;
53072;SDS011;38955;48.916;2.336;2023-05-07T03:13:11;3.80;;;1.90;;
53072;SDS011;38955;48.916;2.336;2023-05-07T03:15:13;4.45;;;2.08;;
53072;SDS011;38955;48.916;2.336;2023-05-07T03:17:16;5.07;;;2.22;;
53072;SDS011;38955;48.916;2.336;2023-05-07T03:19:19;5.07;;;2.50;;
53072;SDS011;38955;48.916;2.336;2023-05-07T03:21:21;2.83;;;1.90;;
53072;SDS011;38955;48.916;2.336;2023-05-07T03:23:23;5.55;;;2.70;;
53072;SDS011;38955;48.916;2.336;2023-05-07T03:25:25;2.90;;;1.80;;
53072;SDS011;38955;48.916;2.336;2023-05-07T03:27:27;3.75;;;1.85;;
53072;SDS011;38955;48.916;2.336;2023-05-07T03:29:29;5.28;;;1.80;;
53072;SDS011;38955;48.916;2.336;2023-05-07T03:31:31;5.20;;;1.90;;
53072;SDS011;38955;48.916;2.336;2023-05-07T03:33:35;4.43;;;1.50;;
53072;SDS011;38955;48.916;2.336;2023-05-07T03:35:40;4.00;;;2.00;;
53072;SDS011;38955;48.916;2.336;2023-05-07T03:37:42;2.97;;;1.75;;
53072;SDS011;38955;48.916;2.336;2023-05-07T03:39:44;5.88;;;1.83;;
53072;SDS011;38955;48.916;2.336;2023-05-07T03:41:47;5.88;;;1.92;;
53072;SDS011;38955;48.916;2.336;2023-05-07T03:43:49;6.07;;;2.65;;
53072;SDS011;38955;48.916;2.336;2023-05-07T03:45:51;6.22;;;1.98;;
53072;SDS011;38955;48.916;2.336;2023-05-07T03:47:53;3.00;;;1.90;;
53072;SDS011;38955;48.916;2.336;2023-05-07T03:49:57;3.35;;;1.52;;
53072;SDS011;38955;48.916;2.336;2023-05-07T03:51:59;7.80;;;2.10;;
53072;SDS011;38955;48.916;2.336;2023-05-07T03:54:01;5.03;;;1.10;;
53072;SDS011;38955;48.916;2.336;2023-05-07T03:56:03;2.83;;;1.33;;
53072;SDS011;38955;48.916;2.336;2023-05-07T03:58:06;4.28;;;1.33;;
53072;SDS011;38955;48.916;2.336;2023-05-07T04:00:08;5.40;;;1.30;;
53072;SDS011;38955;48.916;2.336;2023-05-07T04:02:11;9.82;;;1.20;;
53072;SDS011;38955;48.916;2.336;2023-05-07T04:04:14;1.42;;;0.70;;
53072;SDS011;38955;48.916;2.336;2023-05-07T04:06:19;3.53;;;1.42;;
53072;SDS011;38955;48.916;2.336;2023-05-07T04:08:22;1.17;;;0.60;;
53072;SDS011;38955;48.916;2.336;2023-05-07T04:10:24;0.77;;;0.73;;
53072;SDS011;38955;48.916;2.336;2023-05-07T04:12:28;2.55;;;0.80;;
53072;SDS011;38955;48.916;2.336;2023-05-07T04:14:31;3.17;;;0.73;;
53072;SDS011;38955;48.916;2.336;2023-05-07T04:16:34;7.28;;;1.00;;
53072;SDS011;38955;48.916;2.336;2023-05-07T04:18:36;3.15;;;1.08;;
53072;SDS011;38955;48.916;2.336;2023-05-07T04:20:39;2.17;;;0.93;;
53072;SDS011;38955;48.916;2.336;2023-05-07T04:22:43;2.03;;;0.93;;
53072;SDS011;38955;48.916;2.336;2023-05-07T04:24:45;0.90;;;0.80;;
53072;SDS011;38955;48.916;2.336;2023-05-07T04:26:47;1.45;;;0.90;;
53072;SDS011;38955;48.916;2.336;2023-05-07T04:28:49;3.15;;;0.80;;
53072;SDS011;38955;48.916;2.336;2023-05-07T04:30:51;3.65;;;0.90;;
53072;SDS011;38955;48.916;2.336;2023-05-07T04:32:53;1.42;;;0.80;;
53072;SDS011;38955;48.916;2.336;2023-05-07T04:34:57;2.83;;;1.42;;
53072;SDS011;38955;48.916;2.336;2023-05-07T04:36:59;2.35;;;1.00;;
53072;SDS011;38955;48.916;2.336;2023-05-07T04:39:03;2.67;;;1.20;;
53072;SDS011;38955;48.916;2.336;2023-05-07T04:41:06;2.47;;;0.90;;
53072;SDS011;38955;48.916;2.336;2023-05-07T04:45:12;2.78;;;0.93;;
53072;SDS011;38955;48.916;2.336;2023-05-07T04:47:15;1.98;;;1.20;;
53072;SDS011;38955;48.916;2.336;2023-05-07T04:49:18;1.23;;;0.63;;
53072;SDS011;38955;48.916;2.336;2023-05-07T04:51:20;4.40;;;0.60;;
53072;SDS011;38955;48.916;2.336;2023-05-07T04:53:22;1.48;;;0.73;;
53072;SDS011;38955;48.916;2.336;2023-05-07T04:55:26;3.03;;;0.70;;
53072;SDS011;38955;48.916;2.336;2023-05-07T04:57:28;2.38;;;0.77;;
53072;SDS011;38955;48.916;2.336;2023-05-07T04:59:30;1.08;;;0.60;;
53072;SDS011;38955;48.916;2.336;2023-05-07T05:01:33;2.70;;;0.80;;
53072;SDS011;38955;48.916;2.336;2023-05-07T05:03:35;5.95;;;1.10;;
53072;SDS011;38955;48.916;2.336;2023-05-07T05:05:38;4.25;;;0.93;;
53072;SDS011;38955;48.916;2.336;2023-05-07T05:07:40;1.98;;;0.98;;
53072;SDS011;38955;48.916;2.336;2023-05-07T05:09:42;1.45;;;0.90;;
53072;SDS011;38955;48.916;2.336;2023-05-07T05:11:46;3.40;;;1.17;;
53072;SDS011;38955;48.916;2.336;2023-05-07T05:13:48;2.53;;;0.75;;
53072;SDS011;38955;48.916;2.336;2023-05-07T05:15:50;2.25;;;1.00;;
53072;SDS011;38955;48.916;2.336;2023-05-07T05:17:52;1.38;;;1.00;;
53072;SDS011;38955;48.916;2.336;2023-05-07T05:19:55;2.63;;;1.17;;
53072;SDS011;38955;48.916;2.336;2023-05-07T05:21:57;1.65;;;1.00;;
53072;SDS011;38955;48.916;2.336;2023-05-07T05:23:59;1.30;;;0.75;;
53072;SDS011;38955;48.916;2.336;2023-05-07T05:26:01;4.40;;;1.08;;
53072;SDS011;38955;48.916;2.336;2023-05-07T05:28:05;1.55;;;0.80;;
53072;SDS011;38955;48.916;2.336;2023-05-07T05:30:07;3.15;;;1.33;;
53072;SDS011;38955;48.916;2.336;2023-05-07T05:32:10;1.52;;;0.70;;
53072;SDS011;38955;48.916;2.336;2023-05-07T05:34:12;3.70;;;1.38;;
53072;SDS011;38955;48.916;2.336;2023-05-07T05:36:16;1.75;;;0.90;;
53072;SDS011;38955;48.916;2.336;2023-05-07T05:38:18;1.83;;;0.95;;
53072;SDS011;38955;48.916;2.336;2023-05-07T05:40:20;3.22;;;1.40;;
53072;SDS011;38955;48.916;2.336;2023-05-07T05:42:22;2.47;;;1.48;;
53072;SDS011;38955;48.916;2.336;2023-05-07T05:44:26;2.42;;;0.95;;
53072;SDS011;38955;48.916;2.336;2023-05-07T05:46:28;1.90;;;1.35;;
53072;SDS011;38955;48.916;2.336;2023-05-07T05:48:30;2.17;;;1.13;;
53072;SDS011;38955;48.916;2.336;2023-05-07T05:50:32;2.00;;;0.90;;
53072;SDS011;38955;48.916;2.336;2023-05-07T05:52:36;3.00;;;1.25;;
53072;SDS011;38955;48.916;2.336;2023-05-07T05:54:39;1.42;;;0.90;;
53072;SDS011;38955;48.916;2.336;2023-05-07T05:56:41;1.70;;;1.08;;
53072;SDS011;38955;48.916;2.336;2023-05-07T05:58:43;2.47;;;1.10;;
53072;SDS011;38955;48.916;2.336;2023-05-07T06:00:47;5.43;;;1.58;;
53072;SDS011;38955;48.916;2.336;2023-05-07T06:02:49;2.43;;;1.10;;
53072;SDS011;38955;48.916;2.336;2023-05-07T06:04:52;2.22;;;1.48;;
53072;SDS011;38955;48.916;2.336;2023-05-07T06:06:54;1.63;;;1.20;;
53072;SDS011;38955;48.916;2.336;2023-05-07T06:08:56;2.95;;;1.48;;
53072;SDS011;38955;48.916;2.336;2023-05-07T06:10:58;1.80;;;1.27;;
53072;SDS011;38955;48.916;2.336;2023-05-07T06:13:02;1.30;;;0.90;;
53072;SDS011;38955;48.916;2.336;2023-05-07T06:15:05;2.78;;;1.10;;
53072;SDS011;38955;48.916;2.336;2023-05-07T06:17:09;2.40;;;1.13;;
53072;SDS011;38955;48.916;2.336;2023-05-07T06:19:11;2.20;;;1.02;;
53072;SDS011;38955;48.916;2.336;2023-05-07T06:21:13;2.47;;;1.20;;
53072;SDS011;38955;48.916;2.336;2023-05-07T06:23:16;3.00;;;1.38;;
53072;SDS011;38955;48.916;2.336;2023-05-07T06:25:18;1.75;;;1.30;;
53072;SDS011;38955;48.916;2.336;2023-05-07T06:27:21;2.92;;;1.45;;
53072;SDS011;38955;48.916;2.336;2023-05-07T06:29:23;2.17;;;1.10;;
53072;SDS011;38955;48.916;2.336;2023-05-07T06:31:29;2.92;;;0.98;;
53072;SDS011;38955;48.916;2.336;2023-05-07T06:33:36;1.48;;;0.93;;
53072;SDS011;38955;48.916;2.336;2023-05-07T06:35:38;1.25;;;1.05;;
53072;SDS011;38955;48.916;2.336;2023-05-07T06:37:40;1.80;;;1.00;;
53072;SDS011;38955;48.916;2.336;2023-05-07T06:39:43;4.03;;;0.95;;
53072;SDS011;38955;48.916;2.336;2023-05-07T06:41:45;1.27;;;0.70;;
53072;SDS011;38955;48.916;2.336;2023-05-07T06:43:47;1.80;;;1.00;;
53072;SDS011;38955;48.916;2.336;2023-05-07T06:45:50;1.83;;;0.82;;
53072;SDS011;38955;48.916;2.336;2023-05-07T06:47:52;2.70;;;0.70;;
53072;SDS011;38955;48.916;2.336;2023-05-07T06:49:55;1.00;;;0.70;;
53072;SDS011;38955;48.916;2.336;2023-05-07T06:51:57;0.80;;;0.50;;
53072;SDS011;38955;48.916;2.336;2023-05-07T06:53:59;1.05;;;0.50;;
53072;SDS011;38955;48.916;2.336;2023-05-07T06:56:01;1.17;;;0.70;;
53072;SDS011;38955;48.916;2.336;2023-05-07T06:58:03;1.13;;;0.60;;
53072;SDS011;38955;48.916;2.336;2023-05-07T07:00:07;0.93;;;0.80;;
53072;SDS011;38955;48.916;2.336;2023-05-07T07:02:12;1.23;;;0.68;;
53072;SDS011;38955;48.916;2.336;2023-05-07T07:04:15;2.08;;;0.65;;
53072;SDS011;38955;48.916;2.336;2023-05-07T07:06:18;1.88;;;1.00;;
53072;SDS011;38955;48.916;2.336;2023-05-07T07:08:21;1.27;;;0.80;;
53072;SDS011;38955;48.916;2.336;2023-05-07T07:10:23;1.52;;;0.82;;
53072;SDS011;38955;48.916;2.336;2023-05-07T07:12:25;1.77;;;1.00;;
53072;SDS011;38955;48.916;2.336;2023-05-07T07:14:27;1.50;;;0.80;;
53072;SDS011;38955;48.916;2.336;2023-05-07T07:16:29;2.53;;;0.88;;
53072;SDS011;38955;48.916;2.336;2023-05-07T07:18:32;2.08;;;1.02;;
53072;SDS011;38955;48.916;2.336;2023-05-07T07:20:34;3.92;;;1.02;;
53072;SDS011;38955;48.916;2.336;2023-05-07T07:22:37;1.30;;;0.80;;
53072;SDS011;38955;48.916;2.336;2023-05-07T07:24:39;2.78;;;1.20;;
53072;SDS011;38955;48.916;2.336;2023-05-07T07:26:41;1.88;;;0.95;;
53072;SDS011;38955;48.916;2.336;2023-05-07T07:28:44;1.52;;;0.77;;
53072;SDS011;38955;48.916;2.336;2023-05-07T07:30:46;3.65;;;1.13;;
53072;SDS011;38955;48.916;2.336;2023-05-07T07:32:48;2.63;;;1.27;;
53072;SDS011;38955;48.916;2.336;2023-05-07T07:34:50;2.22;;;1.10;;
53072;SDS011;38955;48.916;2.336;2023-05-07T07:36:52;1.10;;;0.73;;
53072;SDS011;38955;48.916;2.336;2023-05-07T07:38:56;3.08;;;1.30;;
53072;SDS011;38955;48.916;2.336;2023-05-07T07:40:58;3.30;;;1.02;;
53072;SDS011;38955;48.916;2.336;2023-05-07T07:43:00;1.70;;;1.08;;
53072;SDS011;38955;48.916;2.336;2023-05-07T07:45:02;2.70;;;1.20;;
53072;SDS011;38955;48.916;2.336;2023-05-07T07:47:05;1.85;;;1.13;;
53072;SDS011;38955;48.916;2.336;2023-05-07T07:49:08;1.33;;;1.00;;
53072;SDS011;38955;48.916;2.336;2023-05-07T07:51:10;1.65;;;1.00;;
53072;SDS011;38955;48.916;2.336;2023-05-07T07:53:12;2.33;;;1.10;;
53072;SDS011;38955;48.916;2.336;2023-05-07T07:55:19;2.65;;;1.33;;
53072;SDS011;38955;48.916;2.336;2023-05-07T07:57:25;1.75;;;1.30;;
53072;SDS011;38955;48.916;2.336;2023-05-07T07:59:27;1.77;;;1.15;;
53072;SDS011;38955;48.916;2.336;2023-05-07T08:01:30;2.13;;;1.15;;
53072;SDS011;38955;48.916;2.336;2023-05-07T08:03:32;1.17;;;0.82;;
53072;SDS011;38955;48.916;2.336;2023-05-07T08:05:35;1.70;;;1.10;;
53072;SDS011;38955;48.916;2.336;2023-05-07T08:07:37;3.58;;;1.42;;
53072;SDS011;38955;48.916;2.336;2023-05-07T08:09:40;2.13;;;1.33;;
53072;SDS011;38955;48.916;2.336;2023-05-07T08:11:43;2.47;;;1.17;;
53072;SDS011;38955;48.916;2.336;2023-05-07T08:13:45;3.03;;;1.30;;
53072;SDS011;38955;48.916;2.336;2023-05-07T08:15:47;3.53;;;1.38;;
53072;SDS011;38955;48.916;2.336;2023-05-07T08:17:49;4.07;;;1.30;;
53072;SDS011;38955;48.916;2.336;2023-05-07T08:19:51;3.60;;;1.58;;
53072;SDS011;38955;48.916;2.336;2023-05-07T08:21:53;1.85;;;1.15;;
53072;SDS011;38955;48.916;2.336;2023-05-07T08:23:56;1.23;;;1.10;;
53072;SDS011;38955;48.916;2.336;2023-05-07T08:25:58;2.15;;;1.23;;
53072;SDS011;38955;48.916;2.336;2023-05-07T08:28:02;1.48;;;1.02;;
53072;SDS011;38955;48.916;2.336;2023-05-07T08:30:05;1.30;;;1.08;;
53072;SDS011;38955;48.916;2.336;2023-05-07T08:32:08;1.73;;;1.17;;
53072;SDS011;38955;48.916;2.336;2023-05-07T08:34:10;1.70;;;0.90;;
53072;SDS011;38955;48.916;2.336;2023-05-07T08:36:12;1.70;;;0.98;;
53072;SDS011;38955;48.916;2.336;2023-05-07T08:38:14;2.25;;;1.10;;
53072;SDS011;38955;48.916;2.336;2023-05-07T08:40:16;4.18;;;1.50;;
53072;SDS011;38955;48.916;2.336;2023-05-07T08:42:19;2.20;;;1.02;;
53072;SDS011;38955;48.916;2.336;2023-05-07T08:44:26;1.00;;;0.90;;
53072;SDS011;38955;48.916;2.336;2023-05-07T08:46:30;4.00;;;1.10;;
53072;SDS011;38955;48.916;2.336;2023-05-07T08:48:33;2.80;;;1.13;;
53072;SDS011;38955;48.916;2.336;2023-05-07T08:50:36;1.02;;;0.80;;
53072;SDS011;38955;48.916;2.336;2023-05-07T08:52:38;2.08;;;1.13;;
53072;SDS011;38955;48.916;2.336;2023-05-07T08:54:41;1.88;;;1.00;;
53072;SDS011;38955;48.916;2.336;2023-05-07T08:56:44;2.33;;;1.00;;
53072;SDS011;38955;48.916;2.336;2023-05-07T08:58:46;2.08;;;0.88;;
53072;SDS011;38955;48.916;2.336;2023-05-07T09:00:50;1.52;;;0.88;;
53072;SDS011;38955;48.916;2.336;2023-05-07T09:02:54;2.88;;;1.10;;
53072;SDS011;38955;48.916;2.336;2023-05-07T09:04:56;7.13;;;1.08;;
53072;SDS011;38955;48.916;2.336;2023-05-07T09:06:58;3.45;;;0.90;;
53072;SDS011;38955;48.916;2.336;2023-05-07T09:09:06;1.77;;;0.98;;
53072;SDS011;38955;48.916;2.336;2023-05-07T09:11:08;1.20;;;1.00;;
53072;SDS011;38955;48.916;2.336;2023-05-07T09:13:11;2.22;;;1.13;;
53072;SDS011;38955;48.916;2.336;2023-05-07T09:15:16;2.58;;;1.23;;
53072;SDS011;38955;48.916;2.336;2023-05-07T09:17:20;2.25;;;1.00;;
53072;SDS011;38955;48.916;2.336;2023-05-07T09:19:22;1.40;;;1.00;;
53072;SDS011;38955;48.916;2.336;2023-05-07T09:21:25;1.77;;;1.10;;
53072;SDS011;38955;48.916;2.336;2023-05-07T09:23:27;3.95;;;1.25;;
53072;SDS011;38955;48.916;2.336;2023-05-07T09:25:30;2.63;;;1.10;;
53072;SDS011;38955;48.916;2.336;2023-05-07T09:27:33;5.60;;;1.20;;
53072;SDS011;38955;48.916;2.336;2023-05-07T09:29:35;2.58;;;1.10;;
53072;SDS011;38955;48.916;2.336;2023-05-07T09:31:38;2.50;;;0.90;;
53072;SDS011;38955;48.916;2.336;2023-05-07T09:33:41;2.10;;;1.08;;
53072;SDS011;38955;48.916;2.336;2023-05-07T09:35:43;1.92;;;1.10;;
53072;SDS011;38955;48.916;2.336;2023-05-07T09:37:46;2.00;;;1.20;;
53072;SDS011;38955;48.916;2.336;2023-05-07T09:39:48;2.65;;;1.35;;
53072;SDS011;38955;48.916;2.336;2023-05-07T09:41:50;1.98;;;1.10;;
53072;SDS011;38955;48.916;2.336;2023-05-07T09:45:57;1.30;;;1.00;;
53072;SDS011;38955;48.916;2.336;2023-05-07T09:48:00;2.72;;;1.13;;
53072;SDS011;38955;48.916;2.336;2023-05-07T09:50:08;2.53;;;1.50;;
53072;SDS011;38955;48.916;2.336;2023-05-07T09:52:11;1.90;;;1.50;;
53072;SDS011;38955;48.916;2.336;2023-05-07T09:54:15;2.13;;;1.40;;
53072;SDS011;38955;48.916;2.336;2023-05-07T09:56:17;2.70;;;1.25;;
53072;SDS011;38955;48.916;2.336;2023-05-07T09:58:21;2.20;;;1.35;;
53072;SDS011;38955;48.916;2.336;2023-05-07T10:00:24;1.98;;;1.45;;
53072;SDS011;38955;48.916;2.336;2023-05-07T10:02:28;3.30;;;1.50;;
53072;SDS011;38955;48.916;2.336;2023-05-07T10:04:32;2.58;;;1.60;;
53072;SDS011;38955;48.916;2.336;2023-05-07T10:06:36;3.03;;;1.40;;
53072;SDS011;38955;48.916;2.336;2023-05-07T10:08:42;1.98;;;1.30;;
53072;SDS011;38955;48.916;2.336;2023-05-07T10:10:45;3.65;;;1.63;;
53072;SDS011;38955;48.916;2.336;2023-05-07T10:12:48;2.03;;;1.33;;
53072;SDS011;38955;48.916;2.336;2023-05-07T10:14:52;2.53;;;1.70;;
53072;SDS011;38955;48.916;2.336;2023-05-07T10:16:55;3.28;;;1.50;;
53072;SDS011;38955;48.916;2.336;2023-05-07T10:18:58;2.15;;;1.20;;
53072;SDS011;38955;48.916;2.336;2023-05-07T10:21:02;1.83;;;1.30;;
53072;SDS011;38955;48.916;2.336;2023-05-07T10:23:09;3.78;;;1.48;;
53072;SDS011;38955;48.916;2.336;2023-05-07T10:25:16;1.63;;;1.33;;
53072;SDS011;38955;48.916;2.336;2023-05-07T10:27:20;2.70;;;1.30;;
53072;SDS011;38955;48.916;2.336;2023-05-07T10:29:25;3.33;;;1.40;;
53072;SDS011;38955;48.916;2.336;2023-05-07T10:31:46;1.75;;;1.20;;
53072;SDS011;38955;48.916;2.336;2023-05-07T10:33:55;6.25;;;1.80;;
53072;SDS011;38955;48.916;2.336;2023-05-07T10:35:58;2.42;;;1.70;;
53072;SDS011;38955;48.916;2.336;2023-05-07T10:38:01;8.70;;;4.70;;
53072;SDS011;38955;48.916;2.336;2023-05-07T10:40:06;13.70;;;6.70;;
53072;SDS011;38955;48.916;2.336;2023-05-07T10:42:10;4.63;;;3.10;;
53072;SDS011;38955;48.916;2.336;2023-05-07T10:44:15;4.63;;;2.40;;
53072;SDS011;38955;48.916;2.336;2023-05-07T10:46:27;3.13;;;2.20;;
53072;SDS011;38955;48.916;2.336;2023-05-07T10:48:29;4.30;;;2.17;;
53072;SDS011;38955;48.916;2.336;2023-05-07T10:50:31;4.10;;;2.75;;
53072;SDS011;38955;48.916;2.336;2023-05-07T10:52:34;3.58;;;2.45;;
53072;SDS011;38955;48.916;2.336;2023-05-07T10:54:36;3.65;;;2.60;;
53072;SDS011;38955;48.916;2.336;2023-05-07T10:56:39;2.95;;;2.35;;
53072;SDS011;38955;48.916;2.336;2023-05-07T10:58:44;3.22;;;2.28;;
53072;SDS011;38955;48.916;2.336;2023-05-07T11:00:46;5.13;;;3.15;;
53072;SDS011;38955;48.916;2.336;2023-05-07T11:03:04;3.47;;;2.58;;
53072;SDS011;38955;48.916;2.336;2023-05-07T11:05:20;3.33;;;2.28;;
53072;SDS011;38955;48.916;2.336;2023-05-07T11:07:27;3.60;;;2.05;;
53072;SDS011;38955;48.916;2.336;2023-05-07T11:12:03;4.47;;;2.40;;
53072;SDS011;38955;48.916;2.336;2023-05-07T11:14:06;5.47;;;3.55;;
53072;SDS011;38955;48.916;2.336;2023-05-07T11:16:16;3.58;;;2.40;;
53072;SDS011;38955;48.916;2.336;2023-05-07T11:18:19;2.97;;;1.88;;
53072;SDS011;38955;48.916;2.336;2023-05-07T11:20:22;4.43;;;2.00;;
53072;SDS011;38955;48.916;2.336;2023-05-07T11:22:54;4.07;;;2.00;;
53072;SDS011;38955;48.916;2.336;2023-05-07T11:24:58;2.72;;;2.13;;
53072;SDS011;38955;48.916;2.336;2023-05-07T11:27:01;4.47;;;2.10;;
53072;SDS011;38955;48.916;2.336;2023-05-07T11:29:09;3.00;;;1.85;;
53072;SDS011;38955;48.916;2.336;2023-05-07T11:31:12;3.03;;;1.73;;
53072;SDS011;38955;48.916;2.336;2023-05-07T11:33:16;3.40;;;2.08;;
53072;SDS011;38955;48.916;2.336;2023-05-07T11:35:19;4.22;;;2.40;;
53072;SDS011;38955;48.916;2.336;2023-05-07T11:37:26;2.72;;;1.90;;
53072;SDS011;38955;48.916;2.336;2023-05-07T11:39:31;3.70;;;2.50;;
53072;SDS011;38955;48.916;2.336;2023-05-07T11:41:34;2.55;;;2.17;;
53072;SDS011;38955;48.916;2.336;2023-05-07T11:43:40;3.00;;;1.87;;
53072;SDS011;38955;48.916;2.336;2023-05-07T11:46:04;2.85;;;2.05;;
53072;SDS011;38955;48.916;2.336;2023-05-07T11:48:08;2.30;;;1.80;;
53072;SDS011;38955;48.916;2.336;2023-05-07T11:50:10;2.63;;;1.83;;
53072;SDS011;38955;48.916;2.336;2023-05-07T11:52:12;1.67;;;1.55;;
53072;SDS011;38955;48.916;2.336;2023-05-07T11:54:15;2.95;;;2.03;;
53072;SDS011;38955;48.916;2.336;2023-05-07T11:56:18;2.90;;;2.10;;
53072;SDS011;38955;48.916;2.336;2023-05-07T11:58:21;3.05;;;2.03;;
53072;SDS011;38955;48.916;2.336;2023-05-07T12:00:25;4.95;;;2.60;;
53072;SDS011;38955;48.916;2.336;2023-05-07T12:02:27;2.75;;;2.00;;
53072;SDS011;38955;48.916;2.336;2023-05-07T12:04:29;2.50;;;2.28;;
53072;SDS011;38955;48.916;2.336;2023-05-07T12:06:35;5.07;;;2.13;;
53072;SDS011;38955;48.916;2.336;2023-05-07T12:08:39;2.20;;;1.90;;
53072;SDS011;38955;48.916;2.336;2023-05-07T12:10:42;3.70;;;2.00;;
53072;SDS011;38955;48.916;2.336;2023-05-07T12:12:45;2.90;;;1.88;;
53072;SDS011;38955;48.916;2.336;2023-05-07T12:14:48;3.65;;;2.50;;
53072;SDS011;38955;48.916;2.336;2023-05-07T12:16:51;5.53;;;2.50;;
53072;SDS011;38955;48.916;2.336;2023-05-07T12:18:53;4.78;;;2.60;;
53072;SDS011;38955;48.916;2.336;2023-05-07T12:20:56;3.63;;;2.00;;
53072;SDS011;38955;48.916;2.336;2023-05-07T12:22:59;3.65;;;2.45;;
53072;SDS011;38955;48.916;2.336;2023-05-07T12:25:01;4.20;;;2.20;;
53072;SDS011;38955;48.916;2.336;2023-05-07T12:27:04;2.35;;;2.15;;
53072;SDS011;38955;48.916;2.336;2023-05-07T12:29:06;3.72;;;2.70;;
53072;SDS011;38955;48.916;2.336;2023-05-07T12:31:08;3.25;;;2.17;;